createdAt,value
2022-09-17T00:00:39.215Z,10.95
2022-09-17T00:01:39.247Z,10.84
2022-09-17T00:02:39.317Z,11.01
2022-09-17T00:03:39.260Z,10.94
2022-09-17T00:04:39.291Z,11.07
2022-09-17T00:05:39.295Z,11.00
2022-09-17T00:06:39.307Z,11.01
2022-09-17T00:07:39.321Z,10.87
2022-09-17T00:08:39.337Z,11.01
2022-09-17T00:09:39.353Z,10.95
2022-09-17T00:10:39.372Z,10.98
2022-09-17T00:11:39.383Z,11.00
2022-09-17T00:12:39.397Z,10.98
2022-09-17T00:13:39.415Z,10.94
2022-09-17T00:14:39.426Z,11.00
2022-09-17T00:15:39.441Z,11.04
2022-09-17T00:16:39.455Z,10.98
2022-09-17T00:17:39.472Z,11.01
2022-09-17T00:18:39.488Z,10.90
2022-09-17T00:19:39.504Z,10.94
2022-09-17T00:20:39.518Z,10.98
2022-09-17T00:21:39.534Z,11.00
2022-09-17T00:22:39.559Z,11.04
2022-09-17T00:23:39.564Z,10.97
2022-09-17T00:24:39.577Z,11.00
2022-09-17T00:25:39.595Z,11.05
2022-09-17T00:26:39.614Z,11.02
2022-09-17T00:27:39.631Z,11.00
2022-09-17T00:28:39.641Z,11.01
2022-09-17T00:29:39.657Z,11.02
2022-09-17T00:30:39.672Z,11.05
2022-09-17T00:31:39.747Z,11.07
2022-09-17T00:32:39.701Z,11.04
2022-09-17T00:33:39.715Z,11.02
2022-09-17T00:34:39.733Z,11.04
2022-09-17T00:35:39.749Z,11.02
2022-09-17T00:36:39.766Z,11.05
2022-09-17T00:37:39.780Z,11.08
2022-09-17T00:38:39.795Z,11.07
2022-09-17T00:39:39.810Z,11.02
2022-09-17T00:40:39.823Z,11.08
2022-09-17T00:41:39.844Z,11.05
2022-09-17T00:42:39.853Z,10.98
2022-09-17T00:43:39.870Z,11.01
2022-09-17T00:44:39.897Z,11.04
2022-09-17T00:45:40.166Z,10.94
2022-09-17T00:46:39.958Z,11.00
2022-09-17T00:47:39.932Z,11.00
2022-09-17T00:48:39.948Z,11.10
2022-09-17T00:49:39.962Z,11.05
2022-09-17T00:50:39.977Z,11.04
2022-09-17T00:51:39.993Z,11.12
2022-09-17T00:52:40.008Z,11.07
2022-09-17T00:53:40.029Z,11.05
2022-09-17T00:54:40.043Z,11.04
2022-09-17T00:55:40.056Z,11.01
2022-09-17T00:56:40.072Z,11.10
2022-09-17T00:57:40.086Z,11.12
2022-09-17T00:58:41.432Z,11.04
2022-09-17T00:59:40.116Z,11.05
2022-09-17T01:00:40.189Z,11.05
2022-09-17T01:01:40.171Z,11.05
2022-09-17T01:02:40.164Z,11.05
2022-09-17T01:03:40.177Z,11.02
2022-09-17T01:04:40.195Z,11.13
2022-09-17T01:05:40.215Z,11.15
2022-09-17T01:06:40.223Z,11.08
2022-09-17T01:07:40.239Z,11.10
2022-09-17T01:08:40.434Z,11.12
2022-09-17T01:09:40.273Z,11.10
2022-09-17T01:10:40.288Z,11.19
2022-09-17T01:11:40.300Z,11.18
2022-09-17T01:12:40.316Z,11.12
2022-09-17T01:13:40.333Z,11.13
2022-09-17T01:14:40.347Z,11.12
2022-09-17T01:15:40.460Z,11.19
2022-09-17T01:16:40.377Z,11.18
2022-09-17T01:17:40.395Z,11.10
2022-09-17T01:18:40.409Z,11.22
2022-09-17T01:19:40.424Z,11.10
2022-09-17T01:20:40.440Z,11.22
2022-09-17T01:21:40.458Z,11.16
2022-09-17T01:22:40.470Z,11.07
2022-09-17T01:23:40.486Z,11.12
2022-09-17T01:24:40.504Z,11.19
2022-09-17T01:25:40.518Z,11.19
2022-09-17T01:26:40.535Z,11.16
2022-09-17T01:27:45.029Z,11.19
2022-09-17T01:28:40.563Z,11.15
2022-09-17T01:29:40.580Z,11.12
2022-09-17T01:30:40.595Z,11.22
2022-09-17T01:31:40.637Z,11.19
2022-09-17T01:32:40.625Z,11.22
2022-09-17T01:33:40.643Z,11.19
2022-09-17T01:34:40.657Z,11.16
2022-09-17T01:35:40.672Z,11.16
2022-09-17T01:36:40.687Z,11.22
2022-09-17T01:37:40.705Z,11.19
2022-09-17T01:38:40.718Z,11.23
2022-09-17T01:39:40.735Z,11.16
2022-09-17T01:40:40.750Z,11.23
2022-09-17T01:41:40.765Z,11.22
2022-09-17T01:42:40.780Z,11.23
2022-09-17T01:43:40.796Z,11.26
2022-09-17T01:44:40.812Z,11.26
2022-09-17T01:45:40.827Z,11.26
2022-09-17T01:46:40.886Z,11.23
2022-09-17T01:47:40.858Z,11.27
2022-09-17T01:48:40.875Z,11.25
2022-09-17T01:49:40.890Z,11.23
2022-09-17T01:50:40.902Z,11.23
2022-09-17T01:51:40.920Z,11.26
2022-09-17T01:52:40.939Z,11.31
2022-09-17T01:53:40.953Z,11.30
2022-09-17T01:54:42.566Z,11.37
2022-09-17T01:55:40.985Z,11.34
2022-09-17T01:56:41.000Z,11.35
2022-09-17T01:57:41.014Z,11.33
2022-09-17T01:58:41.027Z,11.35
2022-09-17T01:59:41.044Z,11.31
2022-09-17T02:00:41.092Z,11.38
2022-09-17T02:01:41.110Z,11.40
2022-09-17T02:02:41.091Z,11.33
2022-09-17T02:03:41.108Z,11.34
2022-09-17T02:04:41.128Z,11.38
2022-09-17T02:05:41.140Z,11.37
2022-09-17T02:06:41.153Z,11.37
2022-09-17T02:07:41.175Z,11.35
2022-09-17T02:08:41.189Z,11.31
2022-09-17T02:09:41.204Z,11.38
2022-09-17T02:10:41.219Z,11.37
2022-09-17T02:11:41.237Z,11.41
2022-09-17T02:12:41.250Z,11.43
2022-09-17T02:13:41.268Z,11.44
2022-09-17T02:14:41.280Z,11.49
2022-09-17T02:15:41.296Z,11.48
2022-09-17T02:16:41.312Z,11.51
2022-09-17T02:17:41.328Z,11.51
2022-09-17T02:18:41.358Z,11.52
2022-09-17T02:19:41.361Z,11.49
2022-09-17T02:20:41.376Z,11.48
2022-09-17T02:21:41.394Z,11.43
2022-09-17T02:22:41.409Z,11.45
2022-09-17T02:23:41.423Z,11.48
2022-09-17T02:24:41.441Z,11.44
2022-09-17T02:25:41.454Z,11.41
2022-09-17T02:26:41.469Z,11.45
2022-09-17T02:27:41.487Z,11.55
2022-09-17T02:28:41.502Z,11.44
2022-09-17T02:29:41.518Z,11.55
2022-09-17T02:30:41.534Z,11.58
2022-09-17T02:31:41.603Z,11.51
2022-09-17T02:32:41.566Z,11.60
2022-09-17T02:33:41.583Z,11.53
2022-09-17T02:34:41.609Z,11.55
2022-09-17T02:35:41.617Z,11.63
2022-09-17T02:36:41.629Z,11.63
2022-09-17T02:37:41.651Z,11.53
2022-09-17T02:38:41.662Z,11.63
2022-09-17T02:39:41.678Z,11.62
2022-09-17T02:40:41.694Z,11.58
2022-09-17T02:41:41.711Z,11.63
2022-09-17T02:42:41.775Z,11.56
2022-09-17T02:43:41.742Z,11.58
2022-09-17T02:44:41.759Z,11.60
2022-09-17T02:45:41.773Z,11.58
2022-09-17T02:46:41.820Z,11.55
2022-09-17T02:47:41.804Z,11.65
2022-09-17T02:48:41.820Z,11.59
2022-09-17T02:49:41.837Z,11.59
2022-09-17T02:50:41.852Z,11.58
2022-09-17T02:51:41.868Z,11.58
2022-09-17T02:52:41.884Z,11.56
2022-09-17T02:53:41.901Z,11.56
2022-09-17T02:54:41.917Z,11.60
2022-09-17T02:55:41.937Z,11.56
2022-09-17T02:56:41.951Z,11.55
2022-09-17T02:57:41.965Z,11.60
2022-09-17T02:58:41.979Z,11.65
2022-09-17T02:59:41.997Z,11.65
2022-09-17T03:00:42.025Z,11.65
2022-09-17T03:01:42.075Z,11.62
2022-09-17T03:02:42.045Z,11.59
2022-09-17T03:03:42.059Z,11.65
2022-09-17T03:04:42.077Z,11.70
2022-09-17T03:05:42.092Z,11.68
2022-09-17T03:06:42.107Z,11.59
2022-09-17T03:07:42.122Z,11.63
2022-09-17T03:08:42.139Z,11.67
2022-09-17T03:09:42.158Z,11.71
2022-09-17T03:10:42.171Z,11.65
2022-09-17T03:11:42.192Z,11.65
2022-09-17T03:12:42.206Z,11.70
2022-09-17T03:13:42.221Z,11.60
2022-09-17T03:14:42.231Z,11.65
2022-09-17T03:15:42.348Z,11.67
2022-09-17T03:16:42.267Z,11.68
2022-09-17T03:17:42.283Z,11.65
2022-09-17T03:18:42.297Z,11.65
2022-09-17T03:19:42.314Z,11.65
2022-09-17T03:20:42.331Z,11.73
2022-09-17T03:21:42.347Z,11.62
2022-09-17T03:22:42.362Z,11.65
2022-09-17T03:23:42.378Z,11.70
2022-09-17T03:24:42.395Z,11.67
2022-09-17T03:25:42.412Z,11.63
2022-09-17T03:26:42.426Z,11.76
2022-09-17T03:27:42.442Z,11.73
2022-09-17T03:28:42.461Z,11.68
2022-09-17T03:29:42.478Z,11.77
2022-09-17T03:30:42.495Z,11.74
2022-09-17T03:31:42.586Z,11.76
2022-09-17T03:32:42.522Z,11.67
2022-09-17T03:33:42.539Z,11.67
2022-09-17T03:34:42.554Z,11.71
2022-09-17T03:35:42.571Z,11.73
2022-09-17T03:36:42.589Z,11.70
2022-09-17T03:37:42.603Z,11.70
2022-09-17T03:38:42.618Z,11.73
2022-09-17T03:39:42.632Z,11.67
2022-09-17T03:40:42.652Z,11.71
2022-09-17T03:41:42.667Z,11.71
2022-09-17T03:42:42.690Z,11.67
2022-09-17T03:43:42.700Z,11.70
2022-09-17T03:44:45.266Z,11.78
2022-09-17T03:45:42.737Z,11.70
2022-09-17T03:46:42.781Z,11.73
2022-09-17T03:47:42.763Z,11.67
2022-09-17T03:48:42.779Z,11.73
2022-09-17T03:49:42.797Z,11.68
2022-09-17T03:50:42.811Z,11.70
2022-09-17T03:51:42.829Z,11.76
2022-09-17T03:52:42.844Z,11.70
2022-09-17T03:53:42.860Z,11.77
2022-09-17T03:54:42.876Z,11.70
2022-09-17T03:55:42.891Z,11.73
2022-09-17T03:56:42.908Z,11.70
2022-09-17T03:57:42.927Z,11.77
2022-09-17T03:58:42.940Z,11.71
2022-09-17T03:59:42.960Z,11.71
2022-09-17T04:00:42.983Z,11.80
2022-09-17T04:01:43.072Z,11.71
2022-09-17T04:02:43.085Z,11.71
2022-09-17T04:03:43.021Z,11.70
2022-09-17T04:04:43.036Z,11.67
2022-09-17T04:05:43.059Z,11.70
2022-09-17T04:06:43.067Z,11.77
2022-09-17T04:07:43.084Z,11.73
2022-09-17T04:08:43.099Z,11.71
2022-09-17T04:09:43.116Z,11.73
2022-09-17T04:10:43.134Z,11.76
2022-09-17T04:11:43.148Z,11.70
2022-09-17T04:12:43.166Z,11.71
2022-09-17T04:13:43.179Z,11.63
2022-09-17T04:14:43.195Z,11.67
2022-09-17T04:15:43.248Z,11.68
2022-09-17T04:16:43.228Z,11.71
2022-09-17T04:17:43.245Z,11.73
2022-09-17T04:18:43.260Z,11.73
2022-09-17T04:19:43.276Z,11.68
2022-09-17T04:20:43.292Z,11.77
2022-09-17T04:21:43.308Z,11.76
2022-09-17T04:22:43.325Z,11.65
2022-09-17T04:23:43.340Z,11.76
2022-09-17T04:24:43.356Z,11.73
2022-09-17T04:25:43.373Z,11.73
2022-09-17T04:26:43.391Z,11.73
2022-09-17T04:27:43.404Z,11.73
2022-09-17T04:28:43.421Z,11.67
2022-09-17T04:29:43.436Z,11.73
2022-09-17T04:30:43.473Z,11.68
2022-09-17T04:31:43.562Z,11.71
2022-09-17T04:32:43.484Z,11.70
2022-09-17T04:33:43.499Z,11.62
2022-09-17T04:34:43.523Z,11.70
2022-09-17T04:35:43.537Z,11.65
2022-09-17T04:36:43.547Z,11.73
2022-09-17T04:37:43.564Z,11.63
2022-09-17T04:38:43.583Z,11.73
2022-09-17T04:39:43.596Z,11.60
2022-09-17T04:40:43.636Z,11.67
2022-09-17T04:41:43.635Z,11.70
2022-09-17T04:42:43.645Z,11.65
2022-09-17T04:43:43.659Z,11.71
2022-09-17T04:44:43.678Z,11.76
2022-09-17T04:45:43.695Z,11.71
2022-09-17T04:46:43.786Z,11.65
2022-09-17T04:47:43.723Z,11.65
2022-09-17T04:48:43.743Z,11.63
2022-09-17T04:49:43.758Z,11.74
2022-09-17T04:50:43.772Z,11.67
2022-09-17T04:51:43.786Z,11.73
2022-09-17T04:52:43.804Z,11.68
2022-09-17T04:53:43.822Z,11.70
2022-09-17T04:54:43.836Z,11.68
2022-09-17T04:55:43.853Z,11.73
2022-09-17T04:56:43.868Z,11.67
2022-09-17T04:57:43.884Z,11.70
2022-09-17T04:58:43.899Z,11.68
2022-09-17T04:59:43.918Z,11.68
2022-09-17T05:00:43.980Z,11.70
2022-09-17T05:01:43.985Z,11.71
2022-09-17T05:02:43.967Z,11.71
2022-09-17T05:03:43.980Z,11.73
2022-09-17T05:04:43.997Z,11.73
2022-09-17T05:05:44.013Z,11.65
2022-09-17T05:06:44.029Z,11.73
2022-09-17T05:07:44.043Z,11.70
2022-09-17T05:08:44.062Z,11.70
2022-09-17T05:09:44.079Z,11.73
2022-09-17T05:10:44.090Z,11.81
2022-09-17T05:11:44.108Z,11.80
2022-09-17T05:12:44.127Z,11.74
2022-09-17T05:13:44.142Z,11.78
2022-09-17T05:14:44.159Z,11.77
2022-09-17T05:15:44.202Z,11.85
2022-09-17T05:16:44.190Z,11.74
2022-09-17T05:17:44.209Z,11.76
2022-09-17T05:18:44.224Z,11.78
2022-09-17T05:19:44.239Z,11.78
2022-09-17T05:20:44.254Z,11.78
2022-09-17T05:21:44.270Z,11.80
2022-09-17T05:22:44.289Z,11.83
2022-09-17T05:23:44.303Z,11.80
2022-09-17T05:24:44.320Z,11.86
2022-09-17T05:25:44.337Z,11.95
2022-09-17T05:26:44.352Z,11.95
2022-09-17T05:27:44.367Z,11.81
2022-09-17T05:28:44.384Z,11.95
2022-09-17T05:29:44.403Z,11.89
2022-09-17T05:30:44.417Z,12.03
2022-09-17T05:31:44.481Z,11.89
2022-09-17T05:32:44.450Z,11.85
2022-09-17T05:33:44.468Z,11.89
2022-09-17T05:34:44.482Z,11.93
2022-09-17T05:35:44.512Z,12.00
2022-09-17T05:36:44.516Z,11.99
2022-09-17T05:37:44.535Z,11.97
2022-09-17T05:38:44.548Z,12.05
2022-09-17T05:39:44.565Z,12.02
2022-09-17T05:40:44.583Z,12.12
2022-09-17T05:41:44.598Z,12.12
2022-09-17T05:42:44.615Z,12.14
2022-09-17T05:43:44.632Z,12.20
2022-09-17T05:44:44.648Z,12.21
2022-09-17T05:45:44.675Z,12.21
2022-09-17T05:46:44.737Z,12.23
2022-09-17T05:47:44.699Z,12.23
2022-09-17T05:48:44.720Z,12.23
2022-09-17T05:49:44.732Z,12.37
2022-09-17T05:50:44.748Z,12.29
2022-09-17T05:51:44.766Z,12.25
2022-09-17T05:52:44.782Z,12.30
2022-09-17T05:53:44.800Z,12.25
2022-09-17T05:54:44.816Z,12.28
2022-09-17T05:55:44.832Z,12.29
2022-09-17T05:56:44.852Z,12.32
2022-09-17T05:57:44.867Z,12.28
2022-09-17T05:58:44.893Z,12.35
2022-09-17T05:59:44.898Z,12.26
2022-09-17T06:00:44.916Z,12.26
2022-09-17T06:01:44.990Z,12.26
2022-09-17T06:02:45.006Z,12.25
2022-09-17T06:03:44.968Z,12.25
2022-09-17T06:04:44.985Z,12.21
2022-09-17T06:05:45.012Z,12.21
2022-09-17T06:06:45.016Z,12.23
2022-09-17T06:07:45.033Z,12.25
2022-09-17T06:08:45.050Z,12.23
2022-09-17T06:09:45.067Z,12.23
2022-09-17T06:10:45.083Z,12.21
2022-09-17T06:11:45.100Z,12.25
2022-09-17T06:12:45.117Z,12.29
2022-09-17T06:13:45.133Z,12.33
2022-09-17T06:14:45.149Z,12.36
2022-09-17T06:15:45.164Z,12.37
2022-09-17T06:16:45.310Z,12.37
2022-09-17T06:17:45.209Z,12.39
2022-09-17T06:18:45.218Z,12.35
2022-09-17T06:19:45.234Z,12.39
2022-09-17T06:20:45.250Z,12.39
2022-09-17T06:21:45.268Z,12.35
2022-09-17T06:22:45.282Z,12.40
2022-09-17T06:23:45.301Z,12.37
2022-09-17T06:24:45.318Z,12.45
2022-09-17T06:25:45.336Z,12.37
2022-09-17T06:26:45.350Z,12.36
2022-09-17T06:27:45.375Z,12.39
2022-09-17T06:28:45.391Z,12.36
2022-09-17T06:29:45.402Z,12.44
2022-09-17T06:30:45.421Z,12.35
2022-09-17T06:31:45.491Z,12.36
2022-09-17T06:32:45.465Z,12.39
2022-09-17T06:33:45.468Z,12.39
2022-09-17T06:34:45.483Z,12.44
2022-09-17T06:35:45.504Z,12.43
2022-09-17T06:36:45.517Z,12.45
2022-09-17T06:37:45.539Z,12.51
2022-09-17T06:38:45.555Z,12.44
2022-09-17T06:39:45.571Z,12.40
2022-09-17T06:40:45.587Z,12.39
2022-09-17T06:41:45.603Z,12.43
2022-09-17T06:42:45.624Z,12.40
2022-09-17T06:43:45.638Z,12.39
2022-09-17T06:44:45.655Z,12.40
2022-09-17T06:45:45.674Z,12.40
2022-09-17T06:46:45.711Z,12.44
2022-09-17T06:47:45.708Z,12.40
2022-09-17T06:48:45.723Z,12.47
2022-09-17T06:49:45.747Z,12.43
2022-09-17T06:50:45.757Z,12.43
2022-09-17T06:51:45.774Z,12.43
2022-09-17T06:52:45.792Z,12.40
2022-09-17T06:53:45.862Z,12.39
2022-09-17T06:54:45.826Z,12.44
2022-09-17T06:55:45.843Z,12.40
2022-09-17T06:56:45.858Z,12.40
2022-09-17T06:57:45.874Z,12.44
2022-09-17T06:58:45.894Z,12.40
2022-09-17T06:59:45.915Z,12.40
2022-09-17T07:00:45.967Z,12.45
2022-09-17T07:01:45.977Z,12.39
2022-09-17T07:02:45.959Z,12.40
2022-09-17T07:03:45.976Z,12.44
2022-09-17T07:04:45.997Z,12.44
2022-09-17T07:05:46.012Z,12.54
2022-09-17T07:06:46.027Z,12.53
2022-09-17T07:07:46.044Z,12.53
2022-09-17T07:08:46.080Z,12.63
2022-09-17T07:09:46.081Z,12.57
2022-09-17T07:10:46.098Z,12.65
2022-09-17T07:11:46.117Z,12.68
2022-09-17T07:12:49.785Z,12.70
2022-09-17T07:13:46.149Z,12.68
2022-09-17T07:14:46.166Z,12.73
2022-09-17T07:15:46.211Z,12.75
2022-09-17T07:16:46.202Z,12.68
2022-09-17T07:17:46.218Z,12.75
2022-09-17T07:18:46.235Z,12.76
2022-09-17T07:19:46.255Z,12.81
2022-09-17T07:20:46.272Z,12.86
2022-09-17T07:21:46.291Z,12.83
2022-09-17T07:22:46.308Z,12.81
2022-09-17T07:23:46.350Z,12.86
2022-09-17T07:24:46.344Z,12.78
2022-09-17T07:25:46.361Z,12.81
2022-09-17T07:26:46.381Z,12.84
2022-09-17T07:27:46.398Z,12.91
2022-09-17T07:28:46.412Z,12.98
2022-09-17T07:29:46.432Z,12.93
2022-09-17T07:30:46.450Z,12.99
2022-09-17T07:31:46.497Z,12.99
2022-09-17T07:32:46.484Z,13.13
2022-09-17T07:33:46.506Z,13.13
2022-09-17T07:34:46.519Z,13.16
2022-09-17T07:35:46.539Z,13.13
2022-09-17T07:36:46.560Z,13.08
2022-09-17T07:37:46.578Z,13.17
2022-09-17T07:38:46.654Z,13.13
2022-09-17T07:39:46.611Z,13.23
2022-09-17T07:40:46.643Z,13.31
2022-09-17T07:41:46.647Z,13.26
2022-09-17T07:42:46.664Z,13.21
2022-09-17T07:43:46.683Z,13.28
2022-09-17T07:44:46.706Z,13.21
2022-09-17T07:45:46.720Z,13.21
2022-09-17T07:46:46.789Z,13.21
2022-09-17T07:47:46.756Z,13.26
2022-09-17T07:48:46.774Z,13.24
2022-09-17T07:49:46.792Z,13.26
2022-09-17T07:50:46.812Z,13.33
2022-09-17T07:51:46.833Z,13.40
2022-09-17T07:52:46.851Z,13.43
2022-09-17T07:53:46.947Z,13.49
2022-09-17T07:54:46.884Z,13.54
2022-09-17T07:55:46.907Z,13.55
2022-09-17T07:56:46.923Z,13.57
2022-09-17T07:57:46.952Z,13.58
2022-09-17T07:58:46.961Z,13.62
2022-09-17T07:59:46.979Z,13.58
2022-09-17T08:00:46.996Z,13.61
2022-09-17T08:01:47.130Z,13.61
2022-09-17T08:02:47.125Z,13.67
2022-09-17T08:03:47.053Z,13.64
2022-09-17T08:04:47.086Z,13.62
2022-09-17T08:05:47.094Z,13.75
2022-09-17T08:06:47.106Z,13.79
2022-09-17T08:07:47.129Z,13.83
2022-09-17T08:08:47.145Z,13.82
2022-09-17T08:09:47.166Z,13.79
2022-09-17T08:10:47.183Z,13.80
2022-09-17T08:12:02.404Z,13.78
2022-09-17T08:12:47.223Z,13.91
2022-09-17T08:13:47.240Z,13.97
2022-09-17T08:14:47.260Z,13.89
2022-09-17T08:15:47.353Z,13.93
2022-09-17T08:16:47.342Z,13.97
2022-09-17T08:17:47.330Z,14.08
2022-09-17T08:18:47.345Z,13.98
2022-09-17T08:19:47.354Z,14.07
2022-09-17T08:20:47.383Z,13.94
2022-09-17T08:21:47.391Z,13.93
2022-09-17T08:22:50.133Z,13.87
2022-09-17T08:23:47.473Z,13.93
2022-09-17T08:24:47.449Z,13.91
2022-09-17T08:25:47.468Z,13.97
2022-09-17T08:26:47.493Z,13.95
2022-09-17T08:27:47.511Z,13.91
2022-09-17T08:28:47.528Z,14.03
2022-09-17T08:29:47.542Z,14.04
2022-09-17T08:30:47.563Z,14.05
2022-09-17T08:31:47.649Z,14.00
2022-09-17T08:32:47.602Z,14.03
2022-09-17T08:33:47.621Z,14.07
2022-09-17T08:34:47.642Z,14.07
2022-09-17T08:35:47.664Z,14.03
2022-09-17T08:36:47.679Z,14.05
2022-09-17T08:37:47.700Z,14.04
2022-09-17T08:38:47.761Z,14.12
2022-09-17T08:39:47.737Z,14.13
2022-09-17T08:40:47.757Z,14.15
2022-09-17T08:41:47.780Z,14.13
2022-09-17T08:42:47.793Z,14.15
2022-09-17T08:43:47.814Z,14.15
2022-09-17T08:44:49.122Z,14.18
2022-09-17T08:45:47.854Z,14.15
2022-09-17T08:46:47.946Z,14.08
2022-09-17T08:47:47.891Z,14.12
2022-09-17T08:48:47.910Z,14.12
2022-09-17T08:49:47.929Z,14.13
2022-09-17T08:50:47.948Z,14.15
2022-09-17T08:51:47.968Z,14.20
2022-09-17T08:52:47.991Z,14.20
2022-09-17T08:53:48.009Z,14.26
2022-09-17T08:54:48.025Z,14.31
2022-09-17T08:55:48.045Z,14.28
2022-09-17T08:56:48.068Z,14.30
2022-09-17T08:57:48.083Z,14.31
2022-09-17T08:58:48.103Z,14.23
2022-09-17T08:59:48.122Z,14.33
2022-09-17T09:00:48.140Z,14.30
2022-09-17T09:01:48.219Z,14.30
2022-09-17T09:02:48.210Z,14.31
2022-09-17T09:03:48.200Z,14.23
2022-09-17T09:04:48.229Z,14.13
2022-09-17T09:05:48.237Z,14.22
2022-09-17T09:06:48.258Z,14.22
2022-09-17T09:07:48.276Z,14.15
2022-09-17T09:08:48.296Z,14.13
2022-09-17T09:09:48.315Z,14.11
2022-09-17T09:10:48.334Z,13.97
2022-09-17T09:11:48.354Z,14.00
2022-09-17T09:12:48.372Z,14.00
2022-09-17T09:13:48.393Z,13.95
2022-09-17T09:14:48.408Z,13.87
2022-09-17T09:15:48.493Z,13.91
2022-09-17T09:16:48.447Z,13.95
2022-09-17T09:17:48.466Z,13.97
2022-09-17T09:18:48.484Z,13.94
2022-09-17T09:19:48.506Z,13.97
2022-09-17T09:20:48.523Z,14.05
2022-09-17T09:21:48.542Z,14.11
2022-09-17T09:22:48.562Z,14.08
2022-09-17T09:23:48.648Z,14.19
2022-09-17T09:24:48.599Z,14.22
2022-09-17T09:25:48.617Z,14.19
2022-09-17T09:26:48.636Z,14.18
2022-09-17T09:27:48.657Z,14.20
2022-09-17T09:28:48.678Z,14.19
2022-09-17T09:29:48.694Z,14.16
2022-09-17T09:30:48.713Z,14.18
2022-09-17T09:31:48.841Z,14.25
2022-09-17T09:32:48.753Z,14.26
2022-09-17T09:33:48.772Z,14.28
2022-09-17T09:34:48.788Z,14.25
2022-09-17T09:35:48.808Z,14.41
2022-09-17T09:36:48.830Z,14.37
2022-09-17T09:37:48.849Z,14.51
2022-09-17T09:38:48.933Z,14.55
2022-09-17T09:39:48.888Z,14.49
2022-09-17T09:40:48.906Z,14.62
2022-09-17T09:41:48.927Z,14.74
2022-09-17T09:42:48.959Z,14.62
2022-09-17T09:44:05.280Z,14.79
2022-09-17T09:44:48.988Z,14.78
2022-09-17T09:45:49.004Z,14.78
2022-09-17T09:46:49.074Z,14.71
2022-09-17T09:47:49.045Z,14.74
2022-09-17T09:48:49.064Z,14.63
2022-09-17T09:49:49.084Z,14.63
2022-09-17T09:51:05.783Z,14.71
2022-09-17T09:51:49.124Z,14.63
2022-09-17T09:52:49.142Z,14.63
2022-09-17T09:53:49.219Z,14.61
2022-09-17T09:54:49.181Z,14.59
2022-09-17T09:55:49.203Z,14.55
2022-09-17T09:56:49.222Z,14.44
2022-09-17T09:57:49.249Z,14.38
2022-09-17T09:58:49.263Z,14.34
2022-09-17T09:59:49.284Z,14.22
2022-09-17T10:00:49.303Z,14.13
2022-09-17T10:01:49.441Z,14.11
2022-09-17T10:02:49.501Z,14.19
2022-09-17T10:03:49.360Z,14.18
2022-09-17T10:04:53.218Z,14.18
2022-09-17T10:05:49.395Z,14.20
2022-09-17T10:06:49.414Z,14.22
2022-09-17T10:07:49.441Z,14.23
2022-09-17T10:08:49.516Z,14.40
2022-09-17T10:09:49.495Z,14.48
2022-09-17T10:10:49.489Z,14.41
2022-09-17T10:11:49.508Z,14.30
2022-09-17T10:12:49.527Z,14.48
2022-09-17T10:13:49.547Z,14.34
2022-09-17T10:14:49.565Z,14.48
2022-09-17T10:15:49.649Z,14.37
2022-09-17T10:16:49.604Z,14.37
2022-09-17T10:17:49.627Z,14.40
2022-09-17T10:18:49.642Z,14.37
2022-09-17T10:19:49.662Z,14.36
2022-09-17T10:20:49.682Z,14.43
2022-09-17T10:21:49.701Z,14.33
2022-09-17T10:22:49.717Z,14.40
2022-09-17T10:23:49.735Z,14.44
2022-09-17T10:24:49.758Z,14.40
2022-09-17T10:25:49.775Z,14.56
2022-09-17T10:26:49.797Z,14.49
2022-09-17T10:27:49.813Z,14.63
2022-09-17T10:28:49.832Z,14.77
2022-09-17T10:29:49.854Z,14.81
2022-09-17T10:30:49.871Z,14.77
2022-09-17T10:31:49.965Z,14.86
2022-09-17T10:32:49.910Z,14.92
2022-09-17T10:33:49.929Z,14.93
2022-09-17T10:34:49.948Z,14.93
2022-09-17T10:35:49.968Z,14.87
2022-09-17T10:36:49.990Z,14.89
2022-09-17T10:37:50.008Z,14.94
2022-09-17T10:38:50.027Z,14.92
2022-09-17T10:39:50.097Z,14.87
2022-09-17T10:40:50.067Z,14.85
2022-09-17T10:41:50.094Z,14.96
2022-09-17T10:42:50.106Z,14.85
2022-09-17T10:43:50.126Z,14.90
2022-09-17T10:44:50.144Z,14.93
2022-09-17T10:45:50.164Z,14.92
2022-09-17T10:46:50.225Z,15.04
2022-09-17T10:47:50.204Z,15.02
2022-09-17T10:48:50.224Z,14.97
2022-09-17T10:49:50.249Z,15.11
2022-09-17T10:50:50.265Z,15.10
2022-09-17T10:51:50.284Z,15.07
2022-09-17T10:52:50.302Z,15.05
2022-09-17T10:53:50.323Z,15.02
2022-09-17T10:54:50.351Z,15.04
2022-09-17T10:55:50.363Z,15.11
2022-09-17T10:56:50.381Z,15.14
2022-09-17T10:57:50.432Z,15.10
2022-09-17T10:58:50.421Z,15.23
2022-09-17T10:59:50.442Z,15.27
2022-09-17T11:00:50.463Z,15.29
2022-09-17T11:01:50.561Z,15.18
2022-09-17T11:02:50.532Z,15.15
2022-09-17T11:03:50.523Z,15.18
2022-09-17T11:04:50.542Z,15.18
2022-09-17T11:05:50.562Z,15.19
2022-09-17T11:06:50.582Z,15.19
2022-09-17T11:07:50.602Z,15.17
2022-09-17T11:08:50.624Z,15.07
2022-09-17T11:09:50.642Z,15.10
2022-09-17T11:10:50.661Z,15.07
2022-09-17T11:11:50.682Z,14.97
2022-09-17T11:12:50.700Z,15.00
2022-09-17T11:13:50.723Z,15.00
2022-09-17T11:14:50.759Z,14.97
2022-09-17T11:15:53.080Z,14.92
2022-09-17T11:16:50.854Z,14.99
2022-09-17T11:17:50.799Z,14.99
2022-09-17T11:18:50.817Z,14.93
2022-09-17T11:19:50.838Z,15.00
2022-09-17T11:20:50.860Z,15.00
2022-09-17T11:21:50.879Z,15.00
2022-09-17T11:22:50.897Z,15.05
2022-09-17T11:23:50.915Z,15.11
2022-09-17T11:24:50.944Z,15.22
2022-09-17T11:25:50.956Z,15.19
2022-09-17T11:26:50.980Z,15.15
2022-09-17T11:27:50.995Z,15.29
2022-09-17T11:28:51.027Z,15.29
2022-09-17T11:29:51.035Z,15.30
2022-09-17T11:30:51.057Z,15.29
2022-09-17T11:31:51.118Z,15.17
2022-09-17T11:32:51.095Z,15.26
2022-09-17T11:33:51.115Z,15.15
2022-09-17T11:34:51.138Z,15.07
2022-09-17T11:35:51.156Z,15.02
2022-09-17T11:36:51.180Z,14.94
2022-09-17T11:37:51.210Z,14.93
2022-09-17T11:38:51.212Z,14.93
2022-09-17T11:39:51.280Z,14.93
2022-09-17T11:40:51.260Z,14.93
2022-09-17T11:41:51.272Z,14.92
2022-09-17T11:42:51.293Z,15.00
2022-09-17T11:43:51.313Z,14.97
2022-09-17T11:44:51.331Z,15.10
2022-09-17T11:45:51.353Z,15.11
2022-09-17T11:46:51.414Z,15.19
2022-09-17T11:47:51.389Z,15.33
2022-09-17T11:48:51.410Z,15.23
2022-09-17T11:49:51.430Z,15.45
2022-09-17T11:50:51.452Z,15.45
2022-09-17T11:51:51.473Z,15.48
2022-09-17T11:52:51.488Z,15.54
2022-09-17T11:53:51.511Z,15.54
2022-09-17T11:54:51.527Z,15.55
2022-09-17T11:55:51.549Z,15.60
2022-09-17T11:56:51.570Z,15.65
2022-09-17T11:57:51.592Z,15.66
2022-09-17T11:58:51.619Z,15.66
2022-09-17T11:59:51.633Z,15.66
2022-09-17T12:00:51.651Z,15.70
2022-09-17T12:01:51.728Z,15.73
2022-09-17T12:02:51.735Z,15.67
2022-09-17T12:03:51.711Z,15.67
2022-09-17T12:04:51.735Z,15.70
2022-09-17T12:05:51.753Z,15.66
2022-09-17T12:06:51.804Z,15.66
2022-09-17T12:07:51.792Z,15.59
2022-09-17T12:08:51.813Z,15.59
2022-09-17T12:09:51.833Z,15.59
2022-09-17T12:10:51.853Z,15.69
2022-09-17T12:11:51.875Z,15.66
2022-09-17T12:12:51.897Z,15.66
2022-09-17T12:13:51.913Z,15.70
2022-09-17T12:14:51.934Z,15.67
2022-09-17T12:15:53.636Z,15.66
2022-09-17T12:16:51.982Z,15.73
2022-09-17T12:18:03.848Z,15.69
2022-09-17T12:18:52.014Z,15.41
2022-09-17T12:19:52.034Z,15.35
2022-09-17T12:20:52.054Z,15.30
2022-09-17T12:21:52.076Z,15.11
2022-09-17T12:22:52.095Z,14.94
2022-09-17T12:23:52.114Z,14.78
2022-09-17T12:24:52.133Z,14.63
2022-09-17T12:25:52.153Z,14.61
2022-09-17T12:26:52.173Z,14.56
2022-09-17T12:27:52.190Z,14.51
2022-09-17T12:28:52.212Z,14.40
2022-09-17T12:29:52.229Z,14.36
2022-09-17T12:30:52.248Z,14.20
2022-09-17T12:31:52.267Z,14.18
2022-09-17T12:32:52.288Z,14.16
2022-09-17T12:33:52.307Z,14.07
2022-09-17T12:34:52.325Z,14.03
2022-09-17T12:36:04.067Z,14.01
2022-09-17T12:36:52.362Z,13.98
2022-09-17T12:37:52.381Z,13.95
2022-09-17T12:38:52.398Z,13.93
2022-09-17T12:39:52.461Z,13.87
2022-09-17T12:40:52.436Z,13.94
2022-09-17T12:41:52.459Z,13.91
2022-09-17T12:42:52.474Z,13.97
2022-09-17T12:43:52.492Z,13.91
2022-09-17T12:44:52.511Z,13.93
2022-09-17T12:45:52.528Z,13.87
2022-09-17T12:46:52.596Z,13.86
2022-09-17T12:47:52.567Z,13.79
2022-09-17T12:48:52.582Z,13.93
2022-09-17T12:49:52.603Z,13.95
2022-09-17T12:50:52.618Z,13.86
2022-09-17T12:51:52.638Z,13.86
2022-09-17T12:52:52.657Z,13.91